sensor_id;sensor_type;location;lat;lon;timestamp;P1;durP1;ratioP1;P2;durP2;ratioP2
52186;SDS011;38161;53.020;6.598;2022-11-06T00:01:31;10.27;;;6.13;;
52186;SDS011;38161;53.020;6.598;2022-11-06T00:03:57;11.90;;;6.63;;
52186;SDS011;38161;53.020;6.598;2022-11-06T00:06:23;14.55;;;6.63;;
52186;SDS011;38161;53.020;6.598;2022-11-06T00:09:07;10.85;;;6.00;;
52186;SDS011;38161;53.020;6.598;2022-11-06T00:11:35;9.90;;;6.35;;
52186;SDS011;38161;53.020;6.598;2022-11-06T00:14:02;8.52;;;6.10;;
52186;SDS011;38161;53.020;6.598;2022-11-06T00:16:28;11.43;;;6.82;;
52186;SDS011;38161;53.020;6.598;2022-11-06T00:18:54;11.63;;;7.00;;
52186;SDS011;38161;53.020;6.598;2022-11-06T00:21:25;11.10;;;6.57;;
52186;SDS011;38161;53.020;6.598;2022-11-06T00:23:52;11.85;;;6.40;;
52186;SDS011;38161;53.020;6.598;2022-11-06T00:26:20;11.15;;;6.65;;
52186;SDS011;38161;53.020;6.598;2022-11-06T00:28:47;11.45;;;6.93;;
52186;SDS011;38161;53.020;6.598;2022-11-06T00:31:21;13.65;;;7.60;;
52186;SDS011;38161;53.020;6.598;2022-11-06T00:33:48;15.48;;;7.50;;
52186;SDS011;38161;53.020;6.598;2022-11-06T00:36:15;10.98;;;7.35;;
52186;SDS011;38161;53.020;6.598;2022-11-06T00:38:43;12.57;;;7.80;;
52186;SDS011;38161;53.020;6.598;2022-11-06T00:41:13;11.10;;;7.30;;
52186;SDS011;38161;53.020;6.598;2022-11-06T00:43:40;11.43;;;7.43;;
52186;SDS011;38161;53.020;6.598;2022-11-06T00:46:07;10.13;;;7.22;;
52186;SDS011;38161;53.020;6.598;2022-11-06T00:48:35;14.20;;;7.78;;
52186;SDS011;38161;53.020;6.598;2022-11-06T00:51:11;14.32;;;7.97;;
52186;SDS011;38161;53.020;6.598;2022-11-06T00:53:37;15.93;;;8.45;;
52186;SDS011;38161;53.020;6.598;2022-11-06T00:56:11;13.27;;;7.22;;
52186;SDS011;38161;53.020;6.598;2022-11-06T00:58:40;10.80;;;7.18;;
52186;SDS011;38161;53.020;6.598;2022-11-06T01:03:37;12.38;;;8.00;;
52186;SDS011;38161;53.020;6.598;2022-11-06T01:06:05;13.02;;;7.22;;
52186;SDS011;38161;53.020;6.598;2022-11-06T01:08:32;15.35;;;8.15;;
52186;SDS011;38161;53.020;6.598;2022-11-06T01:10:57;18.70;;;8.67;;
52186;SDS011;38161;53.020;6.598;2022-11-06T01:13:23;20.50;;;7.73;;
52186;SDS011;38161;53.020;6.598;2022-11-06T01:15:49;14.67;;;7.77;;
52186;SDS011;38161;53.020;6.598;2022-11-06T01:18:14;12.50;;;8.37;;
52186;SDS011;38161;53.020;6.598;2022-11-06T01:20:40;12.70;;;8.13;;
52186;SDS011;38161;53.020;6.598;2022-11-06T01:23:06;12.77;;;8.20;;
52186;SDS011;38161;53.020;6.598;2022-11-06T01:25:31;13.27;;;8.10;;
52186;SDS011;38161;53.020;6.598;2022-11-06T01:27:57;14.90;;;8.47;;
52186;SDS011;38161;53.020;6.598;2022-11-06T01:30:23;13.07;;;8.87;;
52186;SDS011;38161;53.020;6.598;2022-11-06T01:32:48;14.43;;;8.73;;
52186;SDS011;38161;53.020;6.598;2022-11-06T01:35:14;14.73;;;9.03;;
52186;SDS011;38161;53.020;6.598;2022-11-06T01:37:40;16.10;;;8.63;;
52186;SDS011;38161;53.020;6.598;2022-11-06T01:40:06;14.27;;;8.75;;
52186;SDS011;38161;53.020;6.598;2022-11-06T01:42:32;15.00;;;9.07;;
52186;SDS011;38161;53.020;6.598;2022-11-06T01:47:56;16.63;;;8.50;;
52186;SDS011;38161;53.020;6.598;2022-11-06T01:50:22;12.60;;;8.20;;
52186;SDS011;38161;53.020;6.598;2022-11-06T01:52:48;13.35;;;8.77;;
52186;SDS011;38161;53.020;6.598;2022-11-06T01:55:23;16.40;;;8.93;;
52186;SDS011;38161;53.020;6.598;2022-11-06T01:57:52;17.93;;;9.10;;
52186;SDS011;38161;53.020;6.598;2022-11-06T02:00:19;13.13;;;8.40;;
52186;SDS011;38161;53.020;6.598;2022-11-06T02:02:45;13.37;;;8.77;;
52186;SDS011;38161;53.020;6.598;2022-11-06T02:05:11;14.30;;;8.73;;
52186;SDS011;38161;53.020;6.598;2022-11-06T02:07:37;16.67;;;8.67;;
52186;SDS011;38161;53.020;6.598;2022-11-06T02:10:04;16.25;;;9.70;;
52186;SDS011;38161;53.020;6.598;2022-11-06T02:12:44;13.85;;;9.18;;
52186;SDS011;38161;53.020;6.598;2022-11-06T02:15:40;18.48;;;8.38;;
52186;SDS011;38161;53.020;6.598;2022-11-06T02:29:49;15.88;;;8.63;;
52186;SDS011;38161;53.020;6.598;2022-11-06T02:32:20;16.60;;;9.00;;
52186;SDS011;38161;53.020;6.598;2022-11-06T02:34:52;14.32;;;9.43;;
52186;SDS011;38161;53.020;6.598;2022-11-06T02:37:22;15.10;;;9.00;;
52186;SDS011;38161;53.020;6.598;2022-11-06T02:39:54;17.08;;;9.30;;
52186;SDS011;38161;53.020;6.598;2022-11-06T02:42:23;15.10;;;9.48;;
52186;SDS011;38161;53.020;6.598;2022-11-06T02:44:52;15.00;;;8.88;;
52186;SDS011;38161;53.020;6.598;2022-11-06T02:47:20;16.30;;;9.82;;
52186;SDS011;38161;53.020;6.598;2022-11-06T02:50:01;14.77;;;9.27;;
52186;SDS011;38161;53.020;6.598;2022-11-06T02:58:13;14.07;;;9.60;;
52186;SDS011;38161;53.020;6.598;2022-11-06T03:01:02;15.82;;;9.48;;
52186;SDS011;38161;53.020;6.598;2022-11-06T03:03:38;15.38;;;9.10;;
52186;SDS011;38161;53.020;6.598;2022-11-06T03:06:10;14.40;;;9.77;;
52186;SDS011;38161;53.020;6.598;2022-11-06T03:08:43;15.95;;;9.43;;
52186;SDS011;38161;53.020;6.598;2022-11-06T03:11:24;16.92;;;9.52;;
52186;SDS011;38161;53.020;6.598;2022-11-06T03:19:36;15.40;;;9.20;;
52186;SDS011;38161;53.020;6.598;2022-11-06T03:22:26;14.43;;;8.80;;
52186;SDS011;38161;53.020;6.598;2022-11-06T03:27:39;11.77;;;7.88;;
52186;SDS011;38161;53.020;6.598;2022-11-06T03:30:13;15.32;;;9.07;;
52186;SDS011;38161;53.020;6.598;2022-11-06T03:35:09;12.95;;;8.45;;
52186;SDS011;38161;53.020;6.598;2022-11-06T03:37:43;14.13;;;8.52;;
52186;SDS011;38161;53.020;6.598;2022-11-06T03:40:15;19.52;;;9.45;;
52186;SDS011;38161;53.020;6.598;2022-11-06T03:42:44;14.00;;;8.82;;
52186;SDS011;38161;53.020;6.598;2022-11-06T03:45:13;16.73;;;8.80;;
52186;SDS011;38161;53.020;6.598;2022-11-06T03:47:44;17.35;;;8.85;;
52186;SDS011;38161;53.020;6.598;2022-11-06T03:50:22;12.30;;;8.13;;
52186;SDS011;38161;53.020;6.598;2022-11-06T03:56:07;15.15;;;9.45;;
52186;SDS011;38161;53.020;6.598;2022-11-06T03:58:48;14.32;;;8.32;;
52186;SDS011;38161;53.020;6.598;2022-11-06T04:01:15;14.65;;;8.18;;
52186;SDS011;38161;53.020;6.598;2022-11-06T04:04:02;19.33;;;9.10;;
52186;SDS011;38161;53.020;6.598;2022-11-06T04:06:59;15.88;;;8.27;;
52186;SDS011;38161;53.020;6.598;2022-11-06T04:09:30;13.50;;;8.10;;
52186;SDS011;38161;53.020;6.598;2022-11-06T04:12:19;13.90;;;8.20;;
52186;SDS011;38161;53.020;6.598;2022-11-06T04:15:08;12.75;;;7.90;;
52186;SDS011;38161;53.020;6.598;2022-11-06T04:17:36;17.25;;;7.88;;
52186;SDS011;38161;53.020;6.598;2022-11-06T04:22:37;13.73;;;7.43;;
52186;SDS011;38161;53.020;6.598;2022-11-06T04:31:15;14.23;;;8.65;;
52186;SDS011;38161;53.020;6.598;2022-11-06T04:33:58;11.23;;;7.18;;
52186;SDS011;38161;53.020;6.598;2022-11-06T04:40:14;14.02;;;8.50;;
52186;SDS011;38161;53.020;6.598;2022-11-06T04:42:55;12.30;;;7.45;;
52186;SDS011;38161;53.020;6.598;2022-11-06T04:45:29;14.95;;;7.55;;
52186;SDS011;38161;53.020;6.598;2022-11-06T04:48:01;11.50;;;7.72;;
52186;SDS011;38161;53.020;6.598;2022-11-06T04:50:29;12.52;;;7.38;;
52186;SDS011;38161;53.020;6.598;2022-11-06T04:53:01;18.67;;;7.50;;
52186;SDS011;38161;53.020;6.598;2022-11-06T04:55:28;15.57;;;7.95;;
52186;SDS011;38161;53.020;6.598;2022-11-06T04:57:54;12.13;;;7.10;;
52186;SDS011;38161;53.020;6.598;2022-11-06T05:00:20;11.87;;;6.87;;
52186;SDS011;38161;53.020;6.598;2022-11-06T05:02:46;12.30;;;6.97;;
52186;SDS011;38161;53.020;6.598;2022-11-06T05:05:11;13.27;;;7.20;;
52186;SDS011;38161;53.020;6.598;2022-11-06T05:07:37;17.70;;;7.63;;
52186;SDS011;38161;53.020;6.598;2022-11-06T05:10:03;15.87;;;7.50;;
52186;SDS011;38161;53.020;6.598;2022-11-06T05:12:29;11.38;;;6.75;;
52186;SDS011;38161;53.020;6.598;2022-11-06T05:14:55;12.17;;;7.17;;
52186;SDS011;38161;53.020;6.598;2022-11-06T05:17:20;13.73;;;7.40;;
52186;SDS011;38161;53.020;6.598;2022-11-06T05:19:46;17.57;;;6.93;;
52186;SDS011;38161;53.020;6.598;2022-11-06T05:22:11;14.07;;;6.80;;
52186;SDS011;38161;53.020;6.598;2022-11-06T05:25:06;14.90;;;7.10;;
52186;SDS011;38161;53.020;6.598;2022-11-06T05:27:32;12.60;;;6.85;;
52186;SDS011;38161;53.020;6.598;2022-11-06T05:29:58;11.10;;;6.83;;
52186;SDS011;38161;53.020;6.598;2022-11-06T05:32:23;13.97;;;6.37;;
52186;SDS011;38161;53.020;6.598;2022-11-06T05:34:49;13.63;;;7.13;;
52186;SDS011;38161;53.020;6.598;2022-11-06T05:37:15;10.80;;;5.90;;
52186;SDS011;38161;53.020;6.598;2022-11-06T05:39:40;10.43;;;6.43;;
52186;SDS011;38161;53.020;6.598;2022-11-06T05:42:06;13.20;;;6.67;;
52186;SDS011;38161;53.020;6.598;2022-11-06T05:44:32;11.23;;;6.50;;
52186;SDS011;38161;53.020;6.598;2022-11-06T05:46:57;11.50;;;5.73;;
52186;SDS011;38161;53.020;6.598;2022-11-06T05:49:23;9.10;;;6.23;;
52186;SDS011;38161;53.020;6.598;2022-11-06T05:51:49;11.30;;;6.30;;
52186;SDS011;38161;53.020;6.598;2022-11-06T05:54:14;10.60;;;5.83;;
52186;SDS011;38161;53.020;6.598;2022-11-06T05:56:40;16.25;;;6.18;;
52186;SDS011;38161;53.020;6.598;2022-11-06T05:59:06;11.43;;;5.50;;
52186;SDS011;38161;53.020;6.598;2022-11-06T06:01:32;13.90;;;6.00;;
52186;SDS011;38161;53.020;6.598;2022-11-06T06:03:57;11.60;;;5.47;;
52186;SDS011;38161;53.020;6.598;2022-11-06T06:06:23;12.07;;;5.87;;
52186;SDS011;38161;53.020;6.598;2022-11-06T06:08:49;11.80;;;5.70;;
52186;SDS011;38161;53.020;6.598;2022-11-06T06:11:15;9.57;;;5.03;;
52186;SDS011;38161;53.020;6.598;2022-11-06T06:13:40;11.50;;;5.33;;
52186;SDS011;38161;53.020;6.598;2022-11-06T06:16:06;9.20;;;5.03;;
52186;SDS011;38161;53.020;6.598;2022-11-06T06:18:32;11.23;;;5.30;;
52186;SDS011;38161;53.020;6.598;2022-11-06T06:20:58;12.57;;;5.47;;
52186;SDS011;38161;53.020;6.598;2022-11-06T06:23:23;12.02;;;4.60;;
52186;SDS011;38161;53.020;6.598;2022-11-06T06:25:49;13.23;;;5.35;;
52186;SDS011;38161;53.020;6.598;2022-11-06T06:28:15;13.10;;;4.90;;
52186;SDS011;38161;53.020;6.598;2022-11-06T06:30:41;14.13;;;5.27;;
52186;SDS011;38161;53.020;6.598;2022-11-06T06:33:06;12.33;;;4.67;;
52186;SDS011;38161;53.020;6.598;2022-11-06T06:35:32;7.17;;;4.40;;
52186;SDS011;38161;53.020;6.598;2022-11-06T06:37:58;10.68;;;4.68;;
52186;SDS011;38161;53.020;6.598;2022-11-06T06:40:24;12.50;;;4.90;;
52186;SDS011;38161;53.020;6.598;2022-11-06T06:42:51;12.65;;;4.60;;
52186;SDS011;38161;53.020;6.598;2022-11-06T06:45:19;12.80;;;4.40;;
52186;SDS011;38161;53.020;6.598;2022-11-06T06:47:45;11.50;;;4.20;;
52186;SDS011;38161;53.020;6.598;2022-11-06T06:50:11;11.87;;;4.90;;
52186;SDS011;38161;53.020;6.598;2022-11-06T06:52:36;8.73;;;4.23;;
52186;SDS011;38161;53.020;6.598;2022-11-06T06:55:03;7.20;;;3.93;;
52186;SDS011;38161;53.020;6.598;2022-11-06T06:57:29;12.13;;;4.32;;
52186;SDS011;38161;53.020;6.598;2022-11-06T06:59:55;10.67;;;5.07;;
52186;SDS011;38161;53.020;6.598;2022-11-06T07:02:20;12.27;;;4.83;;
52186;SDS011;38161;53.020;6.598;2022-11-06T07:04:46;10.03;;;4.03;;
52186;SDS011;38161;53.020;6.598;2022-11-06T07:07:12;10.40;;;5.00;;
52186;SDS011;38161;53.020;6.598;2022-11-06T07:09:38;8.73;;;4.03;;
52186;SDS011;38161;53.020;6.598;2022-11-06T07:12:03;7.60;;;4.33;;
52186;SDS011;38161;53.020;6.598;2022-11-06T07:14:29;9.10;;;5.28;;
52186;SDS011;38161;53.020;6.598;2022-11-06T07:16:55;12.60;;;4.70;;
52186;SDS011;38161;53.020;6.598;2022-11-06T07:19:21;7.50;;;3.97;;
52186;SDS011;38161;53.020;6.598;2022-11-06T07:21:49;11.97;;;4.07;;
52186;SDS011;38161;53.020;6.598;2022-11-06T07:24:16;13.00;;;4.22;;
52186;SDS011;38161;53.020;6.598;2022-11-06T07:26:42;11.75;;;4.40;;
52186;SDS011;38161;53.020;6.598;2022-11-06T07:29:07;10.10;;;4.87;;
52186;SDS011;38161;53.020;6.598;2022-11-06T07:31:33;6.67;;;3.73;;
52186;SDS011;38161;53.020;6.598;2022-11-06T07:33:59;11.43;;;3.97;;
52186;SDS011;38161;53.020;6.598;2022-11-06T07:36:24;11.67;;;3.97;;
52186;SDS011;38161;53.020;6.598;2022-11-06T07:38:50;13.27;;;4.00;;
52186;SDS011;38161;53.020;6.598;2022-11-06T07:41:16;9.87;;;3.90;;
52186;SDS011;38161;53.020;6.598;2022-11-06T07:43:42;11.97;;;4.43;;
52186;SDS011;38161;53.020;6.598;2022-11-06T07:46:09;10.85;;;3.47;;
52186;SDS011;38161;53.020;6.598;2022-11-06T07:48:36;10.02;;;3.42;;
52186;SDS011;38161;53.020;6.598;2022-11-06T07:51:04;7.78;;;3.22;;
52186;SDS011;38161;53.020;6.598;2022-11-06T07:53:31;9.63;;;3.45;;
52186;SDS011;38161;53.020;6.598;2022-11-06T07:55:57;9.55;;;3.78;;
52186;SDS011;38161;53.020;6.598;2022-11-06T07:58:23;9.18;;;3.17;;
52186;SDS011;38161;53.020;6.598;2022-11-06T08:00:50;8.63;;;3.30;;
52186;SDS011;38161;53.020;6.598;2022-11-06T08:03:20;13.55;;;4.18;;
52186;SDS011;38161;53.020;6.598;2022-11-06T08:05:47;8.88;;;3.50;;
52186;SDS011;38161;53.020;6.598;2022-11-06T08:08:12;8.10;;;3.55;;
52186;SDS011;38161;53.020;6.598;2022-11-06T08:10:39;10.50;;;3.65;;
52186;SDS011;38161;53.020;6.598;2022-11-06T08:13:11;11.13;;;3.90;;
52186;SDS011;38161;53.020;6.598;2022-11-06T08:15:39;9.32;;;3.33;;
52186;SDS011;38161;53.020;6.598;2022-11-06T08:18:06;9.18;;;3.50;;
52186;SDS011;38161;53.020;6.598;2022-11-06T08:20:36;10.30;;;3.60;;
52186;SDS011;38161;53.020;6.598;2022-11-06T08:23:03;12.50;;;3.25;;
52186;SDS011;38161;53.020;6.598;2022-11-06T08:25:30;9.07;;;3.33;;
52186;SDS011;38161;53.020;6.598;2022-11-06T08:27:57;7.93;;;3.15;;
52186;SDS011;38161;53.020;6.598;2022-11-06T08:30:24;8.65;;;3.50;;
52186;SDS011;38161;53.020;6.598;2022-11-06T08:32:51;7.75;;;3.25;;
52186;SDS011;38161;53.020;6.598;2022-11-06T08:35:16;13.70;;;3.73;;
52186;SDS011;38161;53.020;6.598;2022-11-06T08:37:42;12.30;;;3.47;;
52186;SDS011;38161;53.020;6.598;2022-11-06T08:40:09;8.73;;;3.28;;
52186;SDS011;38161;53.020;6.598;2022-11-06T08:42:35;9.57;;;3.60;;
52186;SDS011;38161;53.020;6.598;2022-11-06T08:45:00;8.57;;;3.70;;
52186;SDS011;38161;53.020;6.598;2022-11-06T08:47:26;7.40;;;3.10;;
52186;SDS011;38161;53.020;6.598;2022-11-06T08:49:52;9.97;;;3.40;;
52186;SDS011;38161;53.020;6.598;2022-11-06T08:52:18;8.17;;;3.60;;
52186;SDS011;38161;53.020;6.598;2022-11-06T08:54:43;6.67;;;3.53;;
52186;SDS011;38161;53.020;6.598;2022-11-06T08:57:09;10.47;;;3.97;;
52186;SDS011;38161;53.020;6.598;2022-11-06T08:59:35;9.17;;;2.97;;
52186;SDS011;38161;53.020;6.598;2022-11-06T09:02:00;9.73;;;3.60;;
52186;SDS011;38161;53.020;6.598;2022-11-06T09:04:27;8.82;;;3.35;;
52186;SDS011;38161;53.020;6.598;2022-11-06T09:06:52;8.57;;;3.75;;
52186;SDS011;38161;53.020;6.598;2022-11-06T09:09:20;9.52;;;3.50;;
52186;SDS011;38161;53.020;6.598;2022-11-06T09:11:45;12.67;;;3.43;;
52186;SDS011;38161;53.020;6.598;2022-11-06T09:14:11;8.77;;;3.00;;
52186;SDS011;38161;53.020;6.598;2022-11-06T09:16:37;11.87;;;3.50;;
52186;SDS011;38161;53.020;6.598;2022-11-06T09:19:02;5.97;;;2.90;;
52186;SDS011;38161;53.020;6.598;2022-11-06T09:21:28;6.43;;;3.17;;
52186;SDS011;38161;53.020;6.598;2022-11-06T09:23:55;6.97;;;3.10;;
52186;SDS011;38161;53.020;6.598;2022-11-06T09:28:46;6.68;;;2.80;;
52186;SDS011;38161;53.020;6.598;2022-11-06T09:31:12;10.27;;;3.63;;
52186;SDS011;38161;53.020;6.598;2022-11-06T09:33:37;6.63;;;3.20;;
52186;SDS011;38161;53.020;6.598;2022-11-06T09:36:04;9.40;;;3.10;;
52186;SDS011;38161;53.020;6.598;2022-11-06T09:38:30;11.00;;;3.70;;
52186;SDS011;38161;53.020;6.598;2022-11-06T09:40:57;14.00;;;3.58;;
52186;SDS011;38161;53.020;6.598;2022-11-06T09:43:27;10.45;;;3.50;;
52186;SDS011;38161;53.020;6.598;2022-11-06T09:46:19;8.32;;;3.20;;
52186;SDS011;38161;53.020;6.598;2022-11-06T09:54:06;8.13;;;2.70;;
52186;SDS011;38161;53.020;6.598;2022-11-06T09:56:40;8.18;;;3.30;;
52186;SDS011;38161;53.020;6.598;2022-11-06T09:59:10;10.00;;;3.38;;
52186;SDS011;38161;53.020;6.598;2022-11-06T10:01:42;8.77;;;2.53;;
52186;SDS011;38161;53.020;6.598;2022-11-06T10:04:26;8.48;;;2.80;;
52186;SDS011;38161;53.020;6.598;2022-11-06T10:07:00;8.23;;;2.65;;
52186;SDS011;38161;53.020;6.598;2022-11-06T10:09:26;7.28;;;3.10;;
52186;SDS011;38161;53.020;6.598;2022-11-06T10:12:07;11.07;;;2.78;;
52186;SDS011;38161;53.020;6.598;2022-11-06T10:20:09;6.15;;;2.22;;
52186;SDS011;38161;53.020;6.598;2022-11-06T10:28:27;7.15;;;2.10;;
52186;SDS011;38161;53.020;6.598;2022-11-06T10:34:11;11.75;;;2.25;;
52186;SDS011;38161;53.020;6.598;2022-11-06T10:39:21;6.55;;;2.65;;
52186;SDS011;38161;53.020;6.598;2022-11-06T10:41:52;5.35;;;2.00;;
52186;SDS011;38161;53.020;6.598;2022-11-06T10:44:47;9.40;;;2.45;;
52186;SDS011;38161;53.020;6.598;2022-11-06T10:47:39;7.63;;;2.28;;
52186;SDS011;38161;53.020;6.598;2022-11-06T10:50:11;7.32;;;2.45;;
52186;SDS011;38161;53.020;6.598;2022-11-06T10:52:52;8.57;;;2.38;;
52186;SDS011;38161;53.020;6.598;2022-11-06T10:58:33;8.60;;;2.40;;
52186;SDS011;38161;53.020;6.598;2022-11-06T11:01:00;10.02;;;2.38;;
52186;SDS011;38161;53.020;6.598;2022-11-06T11:05:58;6.95;;;2.28;;
52186;SDS011;38161;53.020;6.598;2022-11-06T11:13:43;9.00;;;2.45;;
52186;SDS011;38161;53.020;6.598;2022-11-06T11:16:38;6.43;;;2.42;;
52186;SDS011;38161;53.020;6.598;2022-11-06T11:19:24;3.92;;;2.05;;
52186;SDS011;38161;53.020;6.598;2022-11-06T11:24:43;6.85;;;2.65;;
52186;SDS011;38161;53.020;6.598;2022-11-06T11:27:24;8.30;;;2.40;;
52186;SDS011;38161;53.020;6.598;2022-11-06T11:29:50;7.88;;;2.50;;
52186;SDS011;38161;53.020;6.598;2022-11-06T11:32:16;8.68;;;2.80;;
52186;SDS011;38161;53.020;6.598;2022-11-06T11:34:49;13.95;;;2.65;;
52186;SDS011;38161;53.020;6.598;2022-11-06T11:42:43;6.45;;;2.30;;
52186;SDS011;38161;53.020;6.598;2022-11-06T11:47:35;6.33;;;2.40;;
52186;SDS011;38161;53.020;6.598;2022-11-06T11:52:50;5.13;;;2.33;;
52186;SDS011;38161;53.020;6.598;2022-11-06T11:55:22;9.75;;;2.90;;
52186;SDS011;38161;53.020;6.598;2022-11-06T11:57:52;7.85;;;2.47;;
52186;SDS011;38161;53.020;6.598;2022-11-06T12:00:24;4.80;;;2.50;;
52186;SDS011;38161;53.020;6.598;2022-11-06T12:05:37;6.18;;;2.40;;
52186;SDS011;38161;53.020;6.598;2022-11-06T12:08:05;9.45;;;3.30;;
52186;SDS011;38161;53.020;6.598;2022-11-06T12:10:37;7.10;;;3.00;;
52186;SDS011;38161;53.020;6.598;2022-11-06T12:13:26;8.85;;;3.03;;
52186;SDS011;38161;53.020;6.598;2022-11-06T12:15:55;8.73;;;2.63;;
52186;SDS011;38161;53.020;6.598;2022-11-06T12:18:26;5.38;;;2.40;;
52186;SDS011;38161;53.020;6.598;2022-11-06T12:23:35;8.13;;;2.10;;
52186;SDS011;38161;53.020;6.598;2022-11-06T12:26:10;8.85;;;2.13;;
52186;SDS011;38161;53.020;6.598;2022-11-06T12:29:09;10.80;;;2.40;;
52186;SDS011;38161;53.020;6.598;2022-11-06T12:31:39;6.35;;;2.15;;
52186;SDS011;38161;53.020;6.598;2022-11-06T12:34:11;5.20;;;2.13;;
52186;SDS011;38161;53.020;6.598;2022-11-06T12:36:56;8.40;;;2.10;;
52186;SDS011;38161;53.020;6.598;2022-11-06T12:39:34;6.40;;;1.90;;
52186;SDS011;38161;53.020;6.598;2022-11-06T12:42:03;7.75;;;2.50;;
52186;SDS011;38161;53.020;6.598;2022-11-06T12:44:31;9.27;;;2.45;;
52186;SDS011;38161;53.020;6.598;2022-11-06T12:47:03;5.28;;;2.20;;
52186;SDS011;38161;53.020;6.598;2022-11-06T12:49:51;9.25;;;2.00;;
52186;SDS011;38161;53.020;6.598;2022-11-06T12:52:37;7.45;;;2.10;;
52186;SDS011;38161;53.020;6.598;2022-11-06T13:00:26;5.32;;;1.63;;
52186;SDS011;38161;53.020;6.598;2022-11-06T13:06:34;5.63;;;1.85;;
52186;SDS011;38161;53.020;6.598;2022-11-06T13:11:52;4.50;;;1.98;;
52186;SDS011;38161;53.020;6.598;2022-11-06T13:14:28;8.35;;;2.03;;
52186;SDS011;38161;53.020;6.598;2022-11-06T13:17:29;6.88;;;2.08;;
52186;SDS011;38161;53.020;6.598;2022-11-06T13:19:57;5.30;;;1.70;;
52186;SDS011;38161;53.020;6.598;2022-11-06T13:22:29;8.02;;;2.38;;
52186;SDS011;38161;53.020;6.598;2022-11-06T13:30:48;7.47;;;2.13;;
52186;SDS011;38161;53.020;6.598;2022-11-06T13:33:24;4.30;;;1.83;;
52186;SDS011;38161;53.020;6.598;2022-11-06T13:35:57;6.65;;;1.83;;
52186;SDS011;38161;53.020;6.598;2022-11-06T13:38:33;6.57;;;2.25;;
52186;SDS011;38161;53.020;6.598;2022-11-06T13:41:07;6.13;;;1.92;;
52186;SDS011;38161;53.020;6.598;2022-11-06T13:43:43;6.77;;;2.10;;
52186;SDS011;38161;53.020;6.598;2022-11-06T13:51:50;5.72;;;1.63;;
52186;SDS011;38161;53.020;6.598;2022-11-06T13:54:44;4.43;;;1.70;;
52186;SDS011;38161;53.020;6.598;2022-11-06T14:05:56;4.95;;;1.73;;
52186;SDS011;38161;53.020;6.598;2022-11-06T14:08:32;9.23;;;1.98;;
52186;SDS011;38161;53.020;6.598;2022-11-06T14:11:16;7.15;;;1.90;;
52186;SDS011;38161;53.020;6.598;2022-11-06T14:24:13;6.47;;;1.83;;
52186;SDS011;38161;53.020;6.598;2022-11-06T14:26:43;3.30;;;1.45;;
52186;SDS011;38161;53.020;6.598;2022-11-06T14:34:45;4.55;;;1.60;;
52186;SDS011;38161;53.020;6.598;2022-11-06T14:42:15;9.05;;;2.50;;
52186;SDS011;38161;53.020;6.598;2022-11-06T14:44:55;7.07;;;2.10;;
52186;SDS011;38161;53.020;6.598;2022-11-06T14:47:39;6.13;;;1.88;;
52186;SDS011;38161;53.020;6.598;2022-11-06T14:52:45;6.90;;;1.77;;
52186;SDS011;38161;53.020;6.598;2022-11-06T14:55:31;5.35;;;1.63;;
52186;SDS011;38161;53.020;6.598;2022-11-06T15:00:53;4.03;;;1.73;;
52186;SDS011;38161;53.020;6.598;2022-11-06T15:03:53;5.75;;;1.85;;
52186;SDS011;38161;53.020;6.598;2022-11-06T15:16:44;5.72;;;2.05;;
52186;SDS011;38161;53.020;6.598;2022-11-06T15:19:32;6.40;;;1.95;;
52186;SDS011;38161;53.020;6.598;2022-11-06T15:22:13;7.47;;;2.40;;
52186;SDS011;38161;53.020;6.598;2022-11-06T15:24:45;9.48;;;2.60;;
52186;SDS011;38161;53.020;6.598;2022-11-06T15:27:20;8.00;;;3.00;;
52186;SDS011;38161;53.020;6.598;2022-11-06T15:29:53;11.63;;;3.10;;
52186;SDS011;38161;53.020;6.598;2022-11-06T15:32:26;7.95;;;3.30;;
52186;SDS011;38161;53.020;6.598;2022-11-06T15:34:57;7.40;;;3.10;;
52186;SDS011;38161;53.020;6.598;2022-11-06T15:37:34;6.85;;;3.08;;
52186;SDS011;38161;53.020;6.598;2022-11-06T15:40:05;7.97;;;2.88;;
52186;SDS011;38161;53.020;6.598;2022-11-06T15:42:45;10.52;;;3.70;;
52186;SDS011;38161;53.020;6.598;2022-11-06T15:47:40;9.38;;;3.60;;
52186;SDS011;38161;53.020;6.598;2022-11-06T15:50:21;8.83;;;4.50;;
52186;SDS011;38161;53.020;6.598;2022-11-06T15:52:52;10.07;;;4.57;;
52186;SDS011;38161;53.020;6.598;2022-11-06T15:55:28;6.50;;;3.72;;
52186;SDS011;38161;53.020;6.598;2022-11-06T15:58:04;7.10;;;4.07;;
52186;SDS011;38161;53.020;6.598;2022-11-06T16:00:46;8.25;;;4.03;;
52186;SDS011;38161;53.020;6.598;2022-11-06T16:03:13;7.60;;;3.83;;
52186;SDS011;38161;53.020;6.598;2022-11-06T16:05:42;11.50;;;3.22;;
52186;SDS011;38161;53.020;6.598;2022-11-06T16:10:38;8.07;;;3.22;;
52186;SDS011;38161;53.020;6.598;2022-11-06T16:13:05;9.40;;;3.47;;
52186;SDS011;38161;53.020;6.598;2022-11-06T16:20:55;9.73;;;4.05;;
52186;SDS011;38161;53.020;6.598;2022-11-06T16:23:23;8.95;;;3.70;;
52186;SDS011;38161;53.020;6.598;2022-11-06T16:26:08;8.90;;;3.92;;
52186;SDS011;38161;53.020;6.598;2022-11-06T16:28:40;10.57;;;4.07;;
52186;SDS011;38161;53.020;6.598;2022-11-06T16:31:15;8.15;;;3.53;;
52186;SDS011;38161;53.020;6.598;2022-11-06T16:33:59;8.95;;;3.67;;
52186;SDS011;38161;53.020;6.598;2022-11-06T16:36:30;6.20;;;3.15;;
52186;SDS011;38161;53.020;6.598;2022-11-06T16:41:59;7.22;;;3.05;;
52186;SDS011;38161;53.020;6.598;2022-11-06T16:47:09;8.13;;;2.28;;
52186;SDS011;38161;53.020;6.598;2022-11-06T16:49:36;5.75;;;2.00;;
52186;SDS011;38161;53.020;6.598;2022-11-06T16:54:50;4.45;;;1.60;;
52186;SDS011;38161;53.020;6.598;2022-11-06T16:57:18;5.50;;;1.55;;
52186;SDS011;38161;53.020;6.598;2022-11-06T16:59:52;4.80;;;1.38;;
52186;SDS011;38161;53.020;6.598;2022-11-06T17:02:25;4.72;;;1.35;;
52186;SDS011;38161;53.020;6.598;2022-11-06T17:07:34;3.05;;;1.25;;
52186;SDS011;38161;53.020;6.598;2022-11-06T17:13:21;3.80;;;1.20;;
52186;SDS011;38161;53.020;6.598;2022-11-06T17:18:29;3.90;;;1.17;;
52186;SDS011;38161;53.020;6.598;2022-11-06T17:20:58;3.00;;;1.00;;
52186;SDS011;38161;53.020;6.598;2022-11-06T17:23:44;3.50;;;1.20;;
52186;SDS011;38161;53.020;6.598;2022-11-06T17:28:49;2.45;;;1.10;;
52186;SDS011;38161;53.020;6.598;2022-11-06T17:31:17;5.60;;;1.48;;
52186;SDS011;38161;53.020;6.598;2022-11-06T17:33:44;2.05;;;1.30;;
52186;SDS011;38161;53.020;6.598;2022-11-06T17:36:12;5.85;;;1.38;;
52186;SDS011;38161;53.020;6.598;2022-11-06T17:38:44;2.75;;;1.20;;
52186;SDS011;38161;53.020;6.598;2022-11-06T17:41:10;3.15;;;1.38;;
52186;SDS011;38161;53.020;6.598;2022-11-06T17:43:36;4.73;;;1.50;;
52186;SDS011;38161;53.020;6.598;2022-11-06T17:46:01;3.53;;;1.30;;
52186;SDS011;38161;53.020;6.598;2022-11-06T17:48:27;3.50;;;1.60;;
52186;SDS011;38161;53.020;6.598;2022-11-06T17:50:53;2.97;;;1.50;;
52186;SDS011;38161;53.020;6.598;2022-11-06T17:53:38;5.47;;;1.63;;
52186;SDS011;38161;53.020;6.598;2022-11-06T17:56:04;4.20;;;1.47;;
52186;SDS011;38161;53.020;6.598;2022-11-06T17:58:31;6.95;;;1.77;;
52186;SDS011;38161;53.020;6.598;2022-11-06T18:01:08;3.10;;;1.40;;
52186;SDS011;38161;53.020;6.598;2022-11-06T18:03:36;3.55;;;1.63;;
52186;SDS011;38161;53.020;6.598;2022-11-06T18:06:11;5.38;;;2.05;;
52186;SDS011;38161;53.020;6.598;2022-11-06T18:08:38;4.68;;;2.10;;
52186;SDS011;38161;53.020;6.598;2022-11-06T18:11:04;5.57;;;1.93;;
52186;SDS011;38161;53.020;6.598;2022-11-06T18:13:31;5.05;;;1.98;;
52186;SDS011;38161;53.020;6.598;2022-11-06T18:15:56;3.75;;;1.83;;
52186;SDS011;38161;53.020;6.598;2022-11-06T18:18:22;4.23;;;1.67;;
52186;SDS011;38161;53.020;6.598;2022-11-06T18:20:48;7.00;;;1.77;;
52186;SDS011;38161;53.020;6.598;2022-11-06T18:23:14;5.77;;;2.03;;